sensor_id;sensor_type;location;lat;lon;timestamp;P1;durP1;ratioP1;P2;durP2;ratioP2
9698;SDS011;10089;47.876;8.346;2024-01-06T00:00:56;2.83;;;1.60;;
9698;SDS011;10089;47.876;8.346;2024-01-06T00:03:21;1.80;;;1.35;;
9698;SDS011;10089;47.876;8.346;2024-01-06T00:05:47;2.20;;;1.55;;
9698;SDS011;10089;47.876;8.346;2024-01-06T00:08:13;4.28;;;1.60;;
9698;SDS011;10089;47.876;8.346;2024-01-06T00:10:38;1.77;;;1.30;;
9698;SDS011;10089;47.876;8.346;2024-01-06T00:13:04;5.18;;;1.88;;
9698;SDS011;10089;47.876;8.346;2024-01-06T00:15:29;5.15;;;1.50;;
9698;SDS011;10089;47.876;8.346;2024-01-06T00:17:55;2.58;;;1.35;;
9698;SDS011;10089;47.876;8.346;2024-01-06T00:20:20;3.38;;;1.20;;
9698;SDS011;10089;47.876;8.346;2024-01-06T00:22:46;2.83;;;1.38;;
9698;SDS011;10089;47.876;8.346;2024-01-06T00:25:12;1.55;;;1.30;;
9698;SDS011;10089;47.876;8.346;2024-01-06T00:27:37;1.75;;;1.48;;
9698;SDS011;10089;47.876;8.346;2024-01-06T00:30:03;3.85;;;1.60;;
9698;SDS011;10089;47.876;8.346;2024-01-06T00:32:29;3.22;;;1.20;;
9698;SDS011;10089;47.876;8.346;2024-01-06T00:34:54;1.90;;;1.40;;
9698;SDS011;10089;47.876;8.346;2024-01-06T00:37:20;2.30;;;1.50;;
9698;SDS011;10089;47.876;8.346;2024-01-06T00:39:46;1.42;;;1.13;;
9698;SDS011;10089;47.876;8.346;2024-01-06T00:42:11;5.05;;;1.88;;
9698;SDS011;10089;47.876;8.346;2024-01-06T00:44:37;1.45;;;1.30;;
9698;SDS011;10089;47.876;8.346;2024-01-06T00:47:03;1.60;;;1.10;;
9698;SDS011;10089;47.876;8.346;2024-01-06T00:49:28;1.30;;;1.17;;
9698;SDS011;10089;47.876;8.346;2024-01-06T00:51:54;1.75;;;1.10;;
9698;SDS011;10089;47.876;8.346;2024-01-06T00:54:20;2.67;;;1.70;;
9698;SDS011;10089;47.876;8.346;2024-01-06T00:56:45;1.38;;;1.17;;
9698;SDS011;10089;47.876;8.346;2024-01-06T00:59:11;1.98;;;1.25;;
9698;SDS011;10089;47.876;8.346;2024-01-06T01:01:37;2.80;;;1.02;;
9698;SDS011;10089;47.876;8.346;2024-01-06T01:04:02;1.55;;;1.05;;
9698;SDS011;10089;47.876;8.346;2024-01-06T01:06:28;1.40;;;1.10;;
9698;SDS011;10089;47.876;8.346;2024-01-06T01:08:53;5.28;;;1.30;;
9698;SDS011;10089;47.876;8.346;2024-01-06T01:11:19;2.97;;;1.20;;
9698;SDS011;10089;47.876;8.346;2024-01-06T01:13:45;1.95;;;1.10;;
9698;SDS011;10089;47.876;8.346;2024-01-06T01:16:11;3.15;;;1.20;;
9698;SDS011;10089;47.876;8.346;2024-01-06T01:18:36;3.63;;;1.50;;
9698;SDS011;10089;47.876;8.346;2024-01-06T01:21:02;1.60;;;1.45;;
9698;SDS011;10089;47.876;8.346;2024-01-06T01:23:28;2.35;;;1.33;;
9698;SDS011;10089;47.876;8.346;2024-01-06T01:25:54;5.75;;;1.63;;
9698;SDS011;10089;47.876;8.346;2024-01-06T01:28:19;2.90;;;1.48;;
9698;SDS011;10089;47.876;8.346;2024-01-06T01:30:45;1.65;;;1.10;;
9698;SDS011;10089;47.876;8.346;2024-01-06T01:33:10;4.53;;;2.03;;
9698;SDS011;10089;47.876;8.346;2024-01-06T01:35:36;2.20;;;1.42;;
9698;SDS011;10089;47.876;8.346;2024-01-06T01:38:01;3.13;;;1.30;;
9698;SDS011;10089;47.876;8.346;2024-01-06T01:40:28;2.00;;;1.33;;
9698;SDS011;10089;47.876;8.346;2024-01-06T01:42:53;2.97;;;1.25;;
9698;SDS011;10089;47.876;8.346;2024-01-06T01:45:19;2.55;;;1.52;;
9698;SDS011;10089;47.876;8.346;2024-01-06T01:47:45;3.47;;;1.70;;
9698;SDS011;10089;47.876;8.346;2024-01-06T01:50:11;5.30;;;1.55;;
9698;SDS011;10089;47.876;8.346;2024-01-06T01:52:38;2.63;;;1.75;;
9698;SDS011;10089;47.876;8.346;2024-01-06T01:55:05;5.00;;;1.60;;
9698;SDS011;10089;47.876;8.346;2024-01-06T01:57:31;2.97;;;1.60;;
9698;SDS011;10089;47.876;8.346;2024-01-06T01:59:57;3.65;;;1.42;;
9698;SDS011;10089;47.876;8.346;2024-01-06T02:02:23;4.40;;;1.60;;
9698;SDS011;10089;47.876;8.346;2024-01-06T02:04:48;4.90;;;1.52;;
9698;SDS011;10089;47.876;8.346;2024-01-06T02:07:14;2.88;;;1.50;;
9698;SDS011;10089;47.876;8.346;2024-01-06T02:09:40;3.60;;;1.70;;
9698;SDS011;10089;47.876;8.346;2024-01-06T02:12:06;1.83;;;1.27;;
9698;SDS011;10089;47.876;8.346;2024-01-06T02:14:32;2.03;;;1.67;;
9698;SDS011;10089;47.876;8.346;2024-01-06T02:16:57;5.22;;;1.50;;
9698;SDS011;10089;47.876;8.346;2024-01-06T02:19:23;5.03;;;2.20;;
9698;SDS011;10089;47.876;8.346;2024-01-06T02:21:52;3.13;;;1.83;;
9698;SDS011;10089;47.876;8.346;2024-01-06T02:24:19;4.68;;;2.08;;
9698;SDS011;10089;47.876;8.346;2024-01-06T02:26:45;2.45;;;1.40;;
9698;SDS011;10089;47.876;8.346;2024-01-06T02:29:11;1.77;;;1.58;;
9698;SDS011;10089;47.876;8.346;2024-01-06T02:31:37;3.35;;;1.75;;
9698;SDS011;10089;47.876;8.346;2024-01-06T02:34:03;5.05;;;2.05;;
9698;SDS011;10089;47.876;8.346;2024-01-06T02:36:29;3.28;;;2.08;;
9698;SDS011;10089;47.876;8.346;2024-01-06T02:38:55;3.80;;;1.85;;
9698;SDS011;10089;47.876;8.346;2024-01-06T02:41:20;3.65;;;2.00;;
9698;SDS011;10089;47.876;8.346;2024-01-06T02:43:46;3.67;;;1.80;;
9698;SDS011;10089;47.876;8.346;2024-01-06T02:46:12;2.63;;;1.45;;
9698;SDS011;10089;47.876;8.346;2024-01-06T02:48:37;5.50;;;1.63;;
9698;SDS011;10089;47.876;8.346;2024-01-06T02:51:04;4.97;;;2.00;;
9698;SDS011;10089;47.876;8.346;2024-01-06T02:53:30;2.85;;;1.33;;
9698;SDS011;10089;47.876;8.346;2024-01-06T02:55:56;3.88;;;1.40;;
9698;SDS011;10089;47.876;8.346;2024-01-06T02:58:21;2.38;;;1.48;;
9698;SDS011;10089;47.876;8.346;2024-01-06T03:00:47;2.85;;;1.40;;
9698;SDS011;10089;47.876;8.346;2024-01-06T03:03:13;3.03;;;1.27;;
9698;SDS011;10089;47.876;8.346;2024-01-06T03:05:38;5.55;;;2.00;;
9698;SDS011;10089;47.876;8.346;2024-01-06T03:08:04;1.70;;;1.50;;
9698;SDS011;10089;47.876;8.346;2024-01-06T03:10:30;1.45;;;1.13;;
9698;SDS011;10089;47.876;8.346;2024-01-06T03:12:55;2.40;;;1.40;;
9698;SDS011;10089;47.876;8.346;2024-01-06T03:15:22;4.45;;;1.60;;
9698;SDS011;10089;47.876;8.346;2024-01-06T03:17:47;3.92;;;1.20;;
9698;SDS011;10089;47.876;8.346;2024-01-06T03:20:13;7.60;;;1.53;;
9698;SDS011;10089;47.876;8.346;2024-01-06T03:22:39;2.75;;;1.83;;
9698;SDS011;10089;47.876;8.346;2024-01-06T03:25:04;1.67;;;1.27;;
9698;SDS011;10089;47.876;8.346;2024-01-06T03:27:31;5.30;;;1.67;;
9698;SDS011;10089;47.876;8.346;2024-01-06T03:29:57;1.30;;;1.20;;
9698;SDS011;10089;47.876;8.346;2024-01-06T03:32:22;3.08;;;1.25;;
9698;SDS011;10089;47.876;8.346;2024-01-06T03:34:49;4.47;;;1.48;;
9698;SDS011;10089;47.876;8.346;2024-01-06T03:37:15;4.53;;;2.08;;
9698;SDS011;10089;47.876;8.346;2024-01-06T03:39:42;2.53;;;1.33;;
9698;SDS011;10089;47.876;8.346;2024-01-06T03:42:07;3.72;;;1.30;;
9698;SDS011;10089;47.876;8.346;2024-01-06T03:44:33;3.13;;;1.40;;
9698;SDS011;10089;47.876;8.346;2024-01-06T03:46:59;3.03;;;1.65;;
9698;SDS011;10089;47.876;8.346;2024-01-06T03:49:25;2.67;;;1.58;;
9698;SDS011;10089;47.876;8.346;2024-01-06T03:51:50;5.13;;;1.42;;
9698;SDS011;10089;47.876;8.346;2024-01-06T03:54:16;3.17;;;1.58;;
9698;SDS011;10089;47.876;8.346;2024-01-06T03:56:42;1.55;;;1.20;;
9698;SDS011;10089;47.876;8.346;2024-01-06T03:59:08;3.35;;;1.20;;
9698;SDS011;10089;47.876;8.346;2024-01-06T04:01:34;6.30;;;1.38;;
9698;SDS011;10089;47.876;8.346;2024-01-06T04:04:04;6.07;;;1.55;;
9698;SDS011;10089;47.876;8.346;2024-01-06T04:06:30;2.28;;;1.35;;
9698;SDS011;10089;47.876;8.346;2024-01-06T04:08:59;3.88;;;1.25;;
9698;SDS011;10089;47.876;8.346;2024-01-06T04:11:27;5.57;;;1.92;;
9698;SDS011;10089;47.876;8.346;2024-01-06T04:13:52;4.30;;;1.60;;
9698;SDS011;10089;47.876;8.346;2024-01-06T04:16:19;1.52;;;1.40;;
9698;SDS011;10089;47.876;8.346;2024-01-06T04:18:45;2.70;;;1.90;;
9698;SDS011;10089;47.876;8.346;2024-01-06T04:21:10;3.65;;;1.30;;
9698;SDS011;10089;47.876;8.346;2024-01-06T04:23:36;1.58;;;1.30;;
9698;SDS011;10089;47.876;8.346;2024-01-06T04:26:02;2.15;;;1.40;;
9698;SDS011;10089;47.876;8.346;2024-01-06T04:28:29;2.65;;;1.20;;
9698;SDS011;10089;47.876;8.346;2024-01-06T04:30:55;3.83;;;1.60;;
9698;SDS011;10089;47.876;8.346;2024-01-06T04:33:21;5.22;;;1.70;;
9698;SDS011;10089;47.876;8.346;2024-01-06T04:35:46;2.17;;;1.40;;
9698;SDS011;10089;47.876;8.346;2024-01-06T04:38:12;2.00;;;1.48;;
9698;SDS011;10089;47.876;8.346;2024-01-06T04:40:37;3.25;;;1.63;;
9698;SDS011;10089;47.876;8.346;2024-01-06T04:43:03;6.25;;;1.60;;
9698;SDS011;10089;47.876;8.346;2024-01-06T04:45:30;3.58;;;1.73;;
9698;SDS011;10089;47.876;8.346;2024-01-06T04:47:55;2.00;;;1.58;;
9698;SDS011;10089;47.876;8.346;2024-01-06T04:50:21;2.25;;;1.65;;
9698;SDS011;10089;47.876;8.346;2024-01-06T04:52:47;2.55;;;1.42;;
9698;SDS011;10089;47.876;8.346;2024-01-06T04:55:13;1.50;;;1.40;;
9698;SDS011;10089;47.876;8.346;2024-01-06T04:57:39;4.38;;;1.63;;
9698;SDS011;10089;47.876;8.346;2024-01-06T05:00:05;4.05;;;1.88;;
9698;SDS011;10089;47.876;8.346;2024-01-06T05:02:30;3.20;;;1.60;;
9698;SDS011;10089;47.876;8.346;2024-01-06T05:04:56;5.72;;;1.30;;
9698;SDS011;10089;47.876;8.346;2024-01-06T05:07:22;3.70;;;1.35;;
9698;SDS011;10089;47.876;8.346;2024-01-06T05:09:47;4.55;;;1.60;;
9698;SDS011;10089;47.876;8.346;2024-01-06T05:12:13;4.43;;;1.75;;
9698;SDS011;10089;47.876;8.346;2024-01-06T05:14:40;6.53;;;1.80;;
9698;SDS011;10089;47.876;8.346;2024-01-06T05:17:06;3.25;;;1.35;;
9698;SDS011;10089;47.876;8.346;2024-01-06T05:19:32;3.63;;;1.50;;
9698;SDS011;10089;47.876;8.346;2024-01-06T05:21:58;5.85;;;1.80;;
9698;SDS011;10089;47.876;8.346;2024-01-06T05:24:24;3.20;;;1.60;;
9698;SDS011;10089;47.876;8.346;2024-01-06T05:26:49;4.60;;;1.48;;
9698;SDS011;10089;47.876;8.346;2024-01-06T05:29:15;2.85;;;1.67;;
9698;SDS011;10089;47.876;8.346;2024-01-06T05:31:40;2.63;;;1.60;;
9698;SDS011;10089;47.876;8.346;2024-01-06T05:34:06;3.28;;;1.60;;
9698;SDS011;10089;47.876;8.346;2024-01-06T05:36:32;4.70;;;1.55;;
9698;SDS011;10089;47.876;8.346;2024-01-06T05:38:58;2.92;;;1.70;;
9698;SDS011;10089;47.876;8.346;2024-01-06T05:41:25;3.28;;;1.50;;
9698;SDS011;10089;47.876;8.346;2024-01-06T05:43:51;2.13;;;1.08;;
9698;SDS011;10089;47.876;8.346;2024-01-06T05:46:20;1.50;;;1.27;;
9698;SDS011;10089;47.876;8.346;2024-01-06T05:48:47;5.57;;;1.85;;
9698;SDS011;10089;47.876;8.346;2024-01-06T05:51:12;3.47;;;1.42;;
9698;SDS011;10089;47.876;8.346;2024-01-06T05:53:38;4.75;;;2.00;;
9698;SDS011;10089;47.876;8.346;2024-01-06T05:56:03;3.00;;;1.70;;
9698;SDS011;10089;47.876;8.346;2024-01-06T05:58:29;4.07;;;2.08;;
9698;SDS011;10089;47.876;8.346;2024-01-06T06:00:54;4.25;;;1.85;;
9698;SDS011;10089;47.876;8.346;2024-01-06T06:03:20;2.37;;;1.83;;
9698;SDS011;10089;47.876;8.346;2024-01-06T06:05:46;3.88;;;2.20;;
9698;SDS011;10089;47.876;8.346;2024-01-06T06:08:11;2.53;;;1.63;;
9698;SDS011;10089;47.876;8.346;2024-01-06T06:10:37;2.70;;;1.80;;
9698;SDS011;10089;47.876;8.346;2024-01-06T06:13:17;2.40;;;1.83;;
9698;SDS011;10089;47.876;8.346;2024-01-06T06:15:43;2.67;;;1.50;;
9698;SDS011;10089;47.876;8.346;2024-01-06T06:18:09;2.80;;;1.57;;
9698;SDS011;10089;47.876;8.346;2024-01-06T06:20:34;3.60;;;1.63;;
9698;SDS011;10089;47.876;8.346;2024-01-06T06:23:00;3.13;;;2.03;;
9698;SDS011;10089;47.876;8.346;2024-01-06T06:25:25;8.87;;;1.80;;
9698;SDS011;10089;47.876;8.346;2024-01-06T06:27:51;1.52;;;1.33;;
9698;SDS011;10089;47.876;8.346;2024-01-06T06:30:16;3.08;;;1.38;;
9698;SDS011;10089;47.876;8.346;2024-01-06T06:32:42;2.20;;;1.60;;
9698;SDS011;10089;47.876;8.346;2024-01-06T06:35:07;1.73;;;1.60;;
9698;SDS011;10089;47.876;8.346;2024-01-06T06:37:33;9.35;;;2.28;;
9698;SDS011;10089;47.876;8.346;2024-01-06T06:39:58;6.35;;;1.95;;
9698;SDS011;10089;47.876;8.346;2024-01-06T06:42:24;5.40;;;2.03;;
9698;SDS011;10089;47.876;8.346;2024-01-06T06:44:51;5.43;;;1.80;;
9698;SDS011;10089;47.876;8.346;2024-01-06T06:47:16;3.15;;;1.65;;
9698;SDS011;10089;47.876;8.346;2024-01-06T06:49:42;2.27;;;1.50;;
9698;SDS011;10089;47.876;8.346;2024-01-06T06:52:08;1.50;;;1.40;;
9698;SDS011;10089;47.876;8.346;2024-01-06T06:54:33;4.35;;;1.48;;
9698;SDS011;10089;47.876;8.346;2024-01-06T06:56:59;4.30;;;1.25;;
9698;SDS011;10089;47.876;8.346;2024-01-06T06:59:25;1.53;;;1.13;;
9698;SDS011;10089;47.876;8.346;2024-01-06T07:01:51;1.85;;;1.10;;
9698;SDS011;10089;47.876;8.346;2024-01-06T07:04:17;4.20;;;1.58;;
9698;SDS011;10089;47.876;8.346;2024-01-06T07:06:42;3.92;;;1.40;;
9698;SDS011;10089;47.876;8.346;2024-01-06T07:09:08;5.70;;;1.40;;
9698;SDS011;10089;47.876;8.346;2024-01-06T07:11:33;2.90;;;1.70;;
9698;SDS011;10089;47.876;8.346;2024-01-06T07:13:59;3.83;;;1.40;;
9698;SDS011;10089;47.876;8.346;2024-01-06T07:16:24;1.30;;;1.20;;
9698;SDS011;10089;47.876;8.346;2024-01-06T07:18:50;1.58;;;1.35;;
9698;SDS011;10089;47.876;8.346;2024-01-06T07:21:15;4.03;;;1.90;;
9698;SDS011;10089;47.876;8.346;2024-01-06T07:23:41;2.43;;;1.60;;
9698;SDS011;10089;47.876;8.346;2024-01-06T07:26:07;3.30;;;2.05;;
9698;SDS011;10089;47.876;8.346;2024-01-06T07:28:33;3.03;;;2.10;;
9698;SDS011;10089;47.876;8.346;2024-01-06T07:31:00;3.73;;;2.07;;
9698;SDS011;10089;47.876;8.346;2024-01-06T07:33:25;4.57;;;2.97;;
9698;SDS011;10089;47.876;8.346;2024-01-06T07:35:51;9.10;;;4.43;;
9698;SDS011;10089;47.876;8.346;2024-01-06T07:38:16;12.20;;;6.47;;
9698;SDS011;10089;47.876;8.346;2024-01-06T07:40:42;12.15;;;5.82;;
9698;SDS011;10089;47.876;8.346;2024-01-06T07:43:09;6.15;;;3.97;;
9698;SDS011;10089;47.876;8.346;2024-01-06T07:45:35;7.28;;;4.53;;
9698;SDS011;10089;47.876;8.346;2024-01-06T07:48:00;5.65;;;3.35;;
9698;SDS011;10089;47.876;8.346;2024-01-06T07:50:26;4.20;;;2.30;;
9698;SDS011;10089;47.876;8.346;2024-01-06T07:52:53;10.07;;;5.03;;
9698;SDS011;10089;47.876;8.346;2024-01-06T07:55:19;5.15;;;3.72;;
9698;SDS011;10089;47.876;8.346;2024-01-06T07:57:45;24.65;;;9.93;;
9698;SDS011;10089;47.876;8.346;2024-01-06T08:00:11;19.90;;;7.80;;
9698;SDS011;10089;47.876;8.346;2024-01-06T08:02:41;21.00;;;9.07;;
9698;SDS011;10089;47.876;8.346;2024-01-06T08:05:07;16.92;;;8.18;;
9698;SDS011;10089;47.876;8.346;2024-01-06T08:07:33;9.88;;;3.95;;
9698;SDS011;10089;47.876;8.346;2024-01-06T08:10:00;10.43;;;5.30;;
9698;SDS011;10089;47.876;8.346;2024-01-06T08:12:26;11.70;;;4.03;;
9698;SDS011;10089;47.876;8.346;2024-01-06T08:14:51;6.88;;;2.95;;
9698;SDS011;10089;47.876;8.346;2024-01-06T08:17:17;9.48;;;3.03;;
9698;SDS011;10089;47.876;8.346;2024-01-06T08:19:42;5.03;;;2.92;;
9698;SDS011;10089;47.876;8.346;2024-01-06T08:22:08;5.10;;;2.72;;
9698;SDS011;10089;47.876;8.346;2024-01-06T08:24:34;3.70;;;2.63;;
9698;SDS011;10089;47.876;8.346;2024-01-06T08:26:59;6.20;;;2.70;;
9698;SDS011;10089;47.876;8.346;2024-01-06T08:29:25;5.70;;;2.47;;
9698;SDS011;10089;47.876;8.346;2024-01-06T08:31:50;5.47;;;2.75;;
9698;SDS011;10089;47.876;8.346;2024-01-06T08:34:17;5.13;;;2.55;;
9698;SDS011;10089;47.876;8.346;2024-01-06T08:36:43;2.70;;;2.50;;
9698;SDS011;10089;47.876;8.346;2024-01-06T08:39:08;5.10;;;2.65;;
9698;SDS011;10089;47.876;8.346;2024-01-06T08:41:34;5.40;;;3.30;;
9698;SDS011;10089;47.876;8.346;2024-01-06T08:44:00;7.03;;;2.22;;
9698;SDS011;10089;47.876;8.346;2024-01-06T08:46:26;3.78;;;2.25;;
9698;SDS011;10089;47.876;8.346;2024-01-06T08:48:52;5.78;;;2.03;;
9698;SDS011;10089;47.876;8.346;2024-01-06T08:51:17;7.70;;;2.45;;
9698;SDS011;10089;47.876;8.346;2024-01-06T08:53:45;4.03;;;2.47;;
9698;SDS011;10089;47.876;8.346;2024-01-06T08:56:11;6.90;;;2.38;;
9698;SDS011;10089;47.876;8.346;2024-01-06T08:58:36;4.95;;;2.70;;
9698;SDS011;10089;47.876;8.346;2024-01-06T09:01:02;3.05;;;2.00;;
9698;SDS011;10089;47.876;8.346;2024-01-06T09:03:28;4.15;;;2.20;;
9698;SDS011;10089;47.876;8.346;2024-01-06T09:05:54;3.72;;;2.20;;
9698;SDS011;10089;47.876;8.346;2024-01-06T09:08:21;4.38;;;2.85;;
9698;SDS011;10089;47.876;8.346;2024-01-06T09:10:48;12.70;;;6.05;;
9698;SDS011;10089;47.876;8.346;2024-01-06T09:13:16;16.23;;;7.45;;
9698;SDS011;10089;47.876;8.346;2024-01-06T09:15:42;16.45;;;7.45;;
9698;SDS011;10089;47.876;8.346;2024-01-06T09:18:08;15.82;;;6.80;;
9698;SDS011;10089;47.876;8.346;2024-01-06T09:20:34;12.98;;;5.78;;
9698;SDS011;10089;47.876;8.346;2024-01-06T09:23:00;4.80;;;3.70;;
9698;SDS011;10089;47.876;8.346;2024-01-06T09:25:25;4.93;;;2.65;;
9698;SDS011;10089;47.876;8.346;2024-01-06T09:27:51;9.52;;;3.53;;
9698;SDS011;10089;47.876;8.346;2024-01-06T09:30:18;7.35;;;5.05;;
9698;SDS011;10089;47.876;8.346;2024-01-06T09:32:43;5.18;;;2.72;;
9698;SDS011;10089;47.876;8.346;2024-01-06T09:58:44;2.60;;;2.30;;
9698;SDS011;10089;47.876;8.346;2024-01-06T10:01:10;7.05;;;2.47;;
9698;SDS011;10089;47.876;8.346;2024-01-06T10:03:38;3.75;;;2.42;;
9698;SDS011;10089;47.876;8.346;2024-01-06T10:06:03;5.07;;;2.30;;
9698;SDS011;10089;47.876;8.346;2024-01-06T10:08:32;7.40;;;2.72;;
9698;SDS011;10089;47.876;8.346;2024-01-06T10:11:00;4.57;;;2.05;;
9698;SDS011;10089;47.876;8.346;2024-01-06T10:13:26;1.95;;;1.73;;
9698;SDS011;10089;47.876;8.346;2024-01-06T10:15:53;6.65;;;2.67;;
9698;SDS011;10089;47.876;8.346;2024-01-06T10:18:20;7.38;;;4.40;;
9698;SDS011;10089;47.876;8.346;2024-01-06T10:20:46;5.57;;;3.83;;
9698;SDS011;10089;47.876;8.346;2024-01-06T10:23:12;3.78;;;2.78;;
9698;SDS011;10089;47.876;8.346;2024-01-06T10:25:38;4.63;;;2.67;;
9698;SDS011;10089;47.876;8.346;2024-01-06T10:28:05;3.75;;;2.33;;
9698;SDS011;10089;47.876;8.346;2024-01-06T10:30:31;2.85;;;2.03;;
9698;SDS011;10089;47.876;8.346;2024-01-06T10:32:57;5.55;;;2.83;;
9698;SDS011;10089;47.876;8.346;2024-01-06T10:35:24;2.13;;;1.80;;
9698;SDS011;10089;47.876;8.346;2024-01-06T10:37:51;4.47;;;2.05;;
9698;SDS011;10089;47.876;8.346;2024-01-06T10:40:17;4.30;;;2.08;;
9698;SDS011;10089;47.876;8.346;2024-01-06T10:42:43;4.40;;;2.38;;
9698;SDS011;10089;47.876;8.346;2024-01-06T10:45:10;4.95;;;2.30;;
9698;SDS011;10089;47.876;8.346;2024-01-06T10:47:38;3.30;;;2.20;;
9698;SDS011;10089;47.876;8.346;2024-01-06T10:50:08;3.55;;;2.30;;
9698;SDS011;10089;47.876;8.346;2024-01-06T10:52:34;2.53;;;2.00;;
9698;SDS011;10089;47.876;8.346;2024-01-06T10:55:00;4.53;;;1.88;;
9698;SDS011;10089;47.876;8.346;2024-01-06T10:57:27;2.20;;;1.80;;
9698;SDS011;10089;47.876;8.346;2024-01-06T10:59:56;2.63;;;2.00;;
9698;SDS011;10089;47.876;8.346;2024-01-06T11:02:23;3.28;;;2.50;;
9698;SDS011;10089;47.876;8.346;2024-01-06T11:04:50;8.10;;;3.42;;
9698;SDS011;10089;47.876;8.346;2024-01-06T11:07:17;19.55;;;7.88;;
9698;SDS011;10089;47.876;8.346;2024-01-06T11:09:47;5.82;;;3.13;;
9698;SDS011;10089;47.876;8.346;2024-01-06T11:12:22;6.03;;;3.13;;
9698;SDS011;10089;47.876;8.346;2024-01-06T11:14:48;3.70;;;2.78;;
9698;SDS011;10089;47.876;8.346;2024-01-06T11:17:26;3.83;;;2.75;;
9698;SDS011;10089;47.876;8.346;2024-01-06T11:20:19;5.03;;;2.08;;
9698;SDS011;10089;47.876;8.346;2024-01-06T11:29:30;2.10;;;1.75;;
9698;SDS011;10089;47.876;8.346;2024-01-06T11:35:12;3.20;;;1.67;;
9698;SDS011;10089;47.876;8.346;2024-01-06T11:43:07;4.18;;;2.83;;
9698;SDS011;10089;47.876;8.346;2024-01-06T11:45:33;3.35;;;2.20;;
9698;SDS011;10089;47.876;8.346;2024-01-06T11:48:01;4.00;;;2.67;;
9698;SDS011;10089;47.876;8.346;2024-01-06T11:50:28;3.90;;;2.53;;
9698;SDS011;10089;47.876;8.346;2024-01-06T11:53:04;3.97;;;2.28;;
9698;SDS011;10089;47.876;8.346;2024-01-06T11:55:32;3.15;;;1.90;;
9698;SDS011;10089;47.876;8.346;2024-01-06T11:57:58;2.90;;;1.70;;
9698;SDS011;10089;47.876;8.346;2024-01-06T12:00:28;1.75;;;1.65;;
9698;SDS011;10089;47.876;8.346;2024-01-06T12:02:57;2.72;;;1.67;;
9698;SDS011;10089;47.876;8.346;2024-01-06T12:05:23;3.83;;;1.48;;
9698;SDS011;10089;47.876;8.346;2024-01-06T12:08:01;3.78;;;2.00;;
9698;SDS011;10089;47.876;8.346;2024-01-06T12:10:32;3.28;;;2.22;;
9698;SDS011;10089;47.876;8.346;2024-01-06T12:12:59;2.58;;;1.83;;
9698;SDS011;10089;47.876;8.346;2024-01-06T12:15:26;1.92;;;1.65;;
9698;SDS011;10089;47.876;8.346;2024-01-06T12:17:53;2.17;;;1.35;;
9698;SDS011;10089;47.876;8.346;2024-01-06T12:20:19;4.15;;;1.95;;
9698;SDS011;10089;47.876;8.346;2024-01-06T12:22:46;3.90;;;2.05;;
9698;SDS011;10089;47.876;8.346;2024-01-06T12:25:11;7.78;;;3.53;;
9698;SDS011;10089;47.876;8.346;2024-01-06T12:27:43;4.43;;;2.20;;
9698;SDS011;10089;47.876;8.346;2024-01-06T12:30:16;4.43;;;2.35;;
9698;SDS011;10089;47.876;8.346;2024-01-06T12:32:44;2.70;;;2.00;;
9698;SDS011;10089;47.876;8.346;2024-01-06T12:35:11;2.78;;;2.00;;
9698;SDS011;10089;47.876;8.346;2024-01-06T12:37:37;3.03;;;1.70;;
9698;SDS011;10089;47.876;8.346;2024-01-06T12:40:04;5.72;;;2.38;;
9698;SDS011;10089;47.876;8.346;2024-01-06T12:42:30;3.58;;;1.95;;
9698;SDS011;10089;47.876;8.346;2024-01-06T12:44:56;3.72;;;2.70;;
9698;SDS011;10089;47.876;8.346;2024-01-06T12:47:22;1.90;;;1.67;;
9698;SDS011;10089;47.876;8.346;2024-01-06T12:49:48;4.88;;;2.80;;
9698;SDS011;10089;47.876;8.346;2024-01-06T12:52:13;4.15;;;2.45;;
9698;SDS011;10089;47.876;8.346;2024-01-06T12:54:39;3.22;;;2.13;;
9698;SDS011;10089;47.876;8.346;2024-01-06T12:57:05;1.58;;;1.48;;
9698;SDS011;10089;47.876;8.346;2024-01-06T12:59:31;3.85;;;1.90;;
9698;SDS011;10089;47.876;8.346;2024-01-06T13:01:57;2.80;;;1.52;;
9698;SDS011;10089;47.876;8.346;2024-01-06T13:04:22;2.05;;;1.50;;
9698;SDS011;10089;47.876;8.346;2024-01-06T13:06:48;2.38;;;1.13;;
9698;SDS011;10089;47.876;8.346;2024-01-06T13:09:14;1.30;;;1.20;;
9698;SDS011;10089;47.876;8.346;2024-01-06T13:11:42;1.88;;;1.70;;
9698;SDS011;10089;47.876;8.346;2024-01-06T13:14:11;3.55;;;2.15;;
9698;SDS011;10089;47.876;8.346;2024-01-06T13:16:37;3.38;;;2.40;;
9698;SDS011;10089;47.876;8.346;2024-01-06T13:19:03;8.05;;;3.13;;
9698;SDS011;10089;47.876;8.346;2024-01-06T13:21:30;2.97;;;2.25;;
9698;SDS011;10089;47.876;8.346;2024-01-06T13:23:55;1.92;;;1.50;;
9698;SDS011;10089;47.876;8.346;2024-01-06T13:26:26;1.63;;;1.50;;
9698;SDS011;10089;47.876;8.346;2024-01-06T13:28:52;2.15;;;1.60;;
9698;SDS011;10089;47.876;8.346;2024-01-06T13:31:18;1.88;;;1.73;;
9698;SDS011;10089;47.876;8.346;2024-01-06T13:33:44;2.40;;;2.03;;
9698;SDS011;10089;47.876;8.346;2024-01-06T13:36:09;1.77;;;1.67;;
9698;SDS011;10089;47.876;8.346;2024-01-06T13:38:35;4.32;;;2.30;;
9698;SDS011;10089;47.876;8.346;2024-01-06T13:41:00;3.17;;;2.67;;
9698;SDS011;10089;47.876;8.346;2024-01-06T13:43:26;6.07;;;3.50;;
9698;SDS011;10089;47.876;8.346;2024-01-06T13:45:52;3.70;;;2.78;;
9698;SDS011;10089;47.876;8.346;2024-01-06T13:48:17;4.28;;;2.60;;
9698;SDS011;10089;47.876;8.346;2024-01-06T13:50:44;2.93;;;2.33;;
9698;SDS011;10089;47.876;8.346;2024-01-06T13:53:11;2.65;;;2.20;;
9698;SDS011;10089;47.876;8.346;2024-01-06T13:55:36;2.67;;;2.10;;
9698;SDS011;10089;47.876;8.346;2024-01-06T13:58:02;3.97;;;2.35;;
9698;SDS011;10089;47.876;8.346;2024-01-06T14:00:29;7.40;;;2.60;;
9698;SDS011;10089;47.876;8.346;2024-01-06T14:02:54;4.38;;;2.92;;
9698;SDS011;10089;47.876;8.346;2024-01-06T14:05:21;3.30;;;2.25;;
9698;SDS011;10089;47.876;8.346;2024-01-06T14:07:47;5.40;;;2.53;;
9698;SDS011;10089;47.876;8.346;2024-01-06T14:10:15;4.35;;;2.70;;
9698;SDS011;10089;47.876;8.346;2024-01-06T14:12:41;4.47;;;2.50;;
9698;SDS011;10089;47.876;8.346;2024-01-06T14:15:07;4.30;;;2.50;;
9698;SDS011;10089;47.876;8.346;2024-01-06T14:17:33;2.97;;;2.13;;
9698;SDS011;10089;47.876;8.346;2024-01-06T14:19:59;2.50;;;2.00;;
9698;SDS011;10089;47.876;8.346;2024-01-06T14:22:25;2.42;;;2.03;;
9698;SDS011;10089;47.876;8.346;2024-01-06T14:24:51;2.88;;;2.38;;
9698;SDS011;10089;47.876;8.346;2024-01-06T14:27:17;2.85;;;2.47;;
9698;SDS011;10089;47.876;8.346;2024-01-06T14:29:43;3.75;;;2.58;;
9698;SDS011;10089;47.876;8.346;2024-01-06T14:32:08;5.65;;;2.80;;
9698;SDS011;10089;47.876;8.346;2024-01-06T14:34:34;2.40;;;2.20;;
9698;SDS011;10089;47.876;8.346;2024-01-06T14:37:00;2.28;;;2.08;;
9698;SDS011;10089;47.876;8.346;2024-01-06T14:39:25;3.83;;;1.98;;
9698;SDS011;10089;47.876;8.346;2024-01-06T14:41:51;4.38;;;2.05;;
9698;SDS011;10089;47.876;8.346;2024-01-06T14:44:17;1.95;;;1.70;;
9698;SDS011;10089;47.876;8.346;2024-01-06T14:46:45;2.90;;;2.28;;
9698;SDS011;10089;47.876;8.346;2024-01-06T14:49:11;7.47;;;2.80;;
9698;SDS011;10089;47.876;8.346;2024-01-06T14:51:37;4.05;;;2.60;;
9698;SDS011;10089;47.876;8.346;2024-01-06T14:54:02;3.83;;;2.30;;
9698;SDS011;10089;47.876;8.346;2024-01-06T14:56:29;5.22;;;2.72;;
9698;SDS011;10089;47.876;8.346;2024-01-06T14:58:55;2.75;;;2.05;;
9698;SDS011;10089;47.876;8.346;2024-01-06T15:01:21;3.58;;;2.40;;
9698;SDS011;10089;47.876;8.346;2024-01-06T15:03:47;2.65;;;2.15;;
9698;SDS011;10089;47.876;8.346;2024-01-06T15:06:13;2.03;;;1.83;;
9698;SDS011;10089;47.876;8.346;2024-01-06T15:08:38;3.55;;;1.98;;
9698;SDS011;10089;47.876;8.346;2024-01-06T15:11:04;2.50;;;2.28;;
9698;SDS011;10089;47.876;8.346;2024-01-06T15:13:31;2.30;;;2.10;;
9698;SDS011;10089;47.876;8.346;2024-01-06T15:15:57;2.40;;;2.20;;
9698;SDS011;10089;47.876;8.346;2024-01-06T15:18:22;2.58;;;2.17;;
9698;SDS011;10089;47.876;8.346;2024-01-06T15:20:49;4.00;;;2.38;;
9698;SDS011;10089;47.876;8.346;2024-01-06T15:23:15;2.72;;;2.05;;
9698;SDS011;10089;47.876;8.346;2024-01-06T15:25:43;2.30;;;1.90;;
9698;SDS011;10089;47.876;8.346;2024-01-06T15:28:09;2.70;;;2.25;;
9698;SDS011;10089;47.876;8.346;2024-01-06T15:30:35;3.92;;;2.38;;
9698;SDS011;10089;47.876;8.346;2024-01-06T15:33:01;2.97;;;2.03;;